sensor_id;sensor_type;location;lat;lon;timestamp;temperature;humidity
35381;DHT22;21486;51.916;8.378;2022-11-15T00:01:24;9.40;80.00
35381;DHT22;21486;51.916;8.378;2022-11-15T00:03:53;9.40;79.90
35381;DHT22;21486;51.916;8.378;2022-11-15T00:06:18;9.50;80.10
35381;DHT22;21486;51.916;8.378;2022-11-15T00:08:44;9.50;80.20
35381;DHT22;21486;51.916;8.378;2022-11-15T00:11:11;9.50;80.30
35381;DHT22;21486;51.916;8.378;2022-11-15T00:13:37;9.50;80.40
35381;DHT22;21486;51.916;8.378;2022-11-15T00:16:02;9.50;80.30
35381;DHT22;21486;51.916;8.378;2022-11-15T00:18:29;9.50;80.20
35381;DHT22;21486;51.916;8.378;2022-11-15T00:20:55;9.50;80.30
35381;DHT22;21486;51.916;8.378;2022-11-15T00:23:21;9.50;80.30
35381;DHT22;21486;51.916;8.378;2022-11-15T00:25:47;9.60;80.50
35381;DHT22;21486;51.916;8.378;2022-11-15T00:28:20;9.60;80.60
35381;DHT22;21486;51.916;8.378;2022-11-15T00:30:45;9.60;80.60
35381;DHT22;21486;51.916;8.378;2022-11-15T00:33:11;9.60;80.60
35381;DHT22;21486;51.916;8.378;2022-11-15T00:35:36;9.60;80.60
35381;DHT22;21486;51.916;8.378;2022-11-15T00:38:02;9.70;80.70
35381;DHT22;21486;51.916;8.378;2022-11-15T00:40:28;9.70;80.60
35381;DHT22;21486;51.916;8.378;2022-11-15T00:42:54;9.70;80.90
35381;DHT22;21486;51.916;8.378;2022-11-15T00:45:20;9.80;81.10
35381;DHT22;21486;51.916;8.378;2022-11-15T00:47:46;9.80;81.10
35381;DHT22;21486;51.916;8.378;2022-11-15T00:50:13;9.70;81.20
35381;DHT22;21486;51.916;8.378;2022-11-15T00:52:38;9.80;81.40
35381;DHT22;21486;51.916;8.378;2022-11-15T00:55:05;9.80;81.40
35381;DHT22;21486;51.916;8.378;2022-11-15T00:57:30;9.80;81.40
35381;DHT22;21486;51.916;8.378;2022-11-15T00:59:56;9.90;81.40
35381;DHT22;21486;51.916;8.378;2022-11-15T01:02:21;9.90;81.50
35381;DHT22;21486;51.916;8.378;2022-11-15T01:04:47;9.90;81.70
35381;DHT22;21486;51.916;8.378;2022-11-15T01:07:13;9.80;81.90
35381;DHT22;21486;51.916;8.378;2022-11-15T01:09:38;9.90;81.80
35381;DHT22;21486;51.916;8.378;2022-11-15T01:12:04;9.90;82.10
35381;DHT22;21486;51.916;8.378;2022-11-15T01:14:30;9.90;82.20
35381;DHT22;21486;51.916;8.378;2022-11-15T01:16:56;10.00;82.40
35381;DHT22;21486;51.916;8.378;2022-11-15T01:19:21;10.00;82.60
35381;DHT22;21486;51.916;8.378;2022-11-15T01:21:50;10.10;83.30
35381;DHT22;21486;51.916;8.378;2022-11-15T01:24:16;10.10;83.00
35381;DHT22;21486;51.916;8.378;2022-11-15T01:26:41;10.10;83.30
35381;DHT22;21486;51.916;8.378;2022-11-15T01:29:07;10.10;83.60
35381;DHT22;21486;51.916;8.378;2022-11-15T01:33:04;10.20;83.30
35381;DHT22;21486;51.916;8.378;2022-11-15T01:35:29;10.30;83.30
35381;DHT22;21486;51.916;8.378;2022-11-15T01:37:55;10.30;83.60
35381;DHT22;21486;51.916;8.378;2022-11-15T01:40:20;10.30;83.90
35381;DHT22;21486;51.916;8.378;2022-11-15T01:42:46;10.30;83.80
35381;DHT22;21486;51.916;8.378;2022-11-15T01:45:14;10.30;84.10
35381;DHT22;21486;51.916;8.378;2022-11-15T01:47:46;10.30;84.40
35381;DHT22;21486;51.916;8.378;2022-11-15T01:50:17;10.10;85.40
35381;DHT22;21486;51.916;8.378;2022-11-15T01:52:45;10.10;85.80
35381;DHT22;21486;51.916;8.378;2022-11-15T01:55:14;10.10;86.20
35381;DHT22;21486;51.916;8.378;2022-11-15T01:57:42;10.10;86.50
35381;DHT22;21486;51.916;8.378;2022-11-15T02:00:10;10.10;86.60
35381;DHT22;21486;51.916;8.378;2022-11-15T02:02:37;10.10;86.30
35381;DHT22;21486;51.916;8.378;2022-11-15T02:05:03;10.20;86.70
35381;DHT22;21486;51.916;8.378;2022-11-15T02:07:30;10.20;86.90
35381;DHT22;21486;51.916;8.378;2022-11-15T02:09:58;10.30;86.90
35381;DHT22;21486;51.916;8.378;2022-11-15T02:12:26;10.30;87.10
35381;DHT22;21486;51.916;8.378;2022-11-15T02:14:53;10.30;87.30
35381;DHT22;21486;51.916;8.378;2022-11-15T02:26:54;10.30;87.90
35381;DHT22;21486;51.916;8.378;2022-11-15T02:29:19;10.30;88.20
35381;DHT22;21486;51.916;8.378;2022-11-15T02:32:01;10.40;88.50
35381;DHT22;21486;51.916;8.378;2022-11-15T02:34:50;10.40;88.60
35381;DHT22;21486;51.916;8.378;2022-11-15T02:37:39;10.40;88.60
35381;DHT22;21486;51.916;8.378;2022-11-15T02:40:34;10.40;88.90
35381;DHT22;21486;51.916;8.378;2022-11-15T02:43:07;10.50;89.20
35381;DHT22;21486;51.916;8.378;2022-11-15T02:45:59;10.50;89.90
35381;DHT22;21486;51.916;8.378;2022-11-15T02:48:26;10.50;89.60
35381;DHT22;21486;51.916;8.378;2022-11-15T02:50:52;10.60;89.70
35381;DHT22;21486;51.916;8.378;2022-11-15T02:53:18;10.70;90.00
35381;DHT22;21486;51.916;8.378;2022-11-15T02:55:50;10.70;90.10
35381;DHT22;21486;51.916;8.378;2022-11-15T03:06:06;10.90;90.10
35381;DHT22;21486;51.916;8.378;2022-11-15T03:11:18;10.90;90.10
35381;DHT22;21486;51.916;8.378;2022-11-15T03:16:38;10.90;90.10
35381;DHT22;21486;51.916;8.378;2022-11-15T03:21:38;10.80;90.10
35381;DHT22;21486;51.916;8.378;2022-11-15T03:24:06;10.80;90.10
35381;DHT22;21486;51.916;8.378;2022-11-15T03:26:35;10.80;90.10
35381;DHT22;21486;51.916;8.378;2022-11-15T03:29:11;10.80;90.20
35381;DHT22;21486;51.916;8.378;2022-11-15T03:31:42;10.80;90.20
35381;DHT22;21486;51.916;8.378;2022-11-15T03:36:47;10.70;90.30
35381;DHT22;21486;51.916;8.378;2022-11-15T03:39:14;10.80;90.40
35381;DHT22;21486;51.916;8.378;2022-11-15T03:47:29;10.80;90.50
35381;DHT22;21486;51.916;8.378;2022-11-15T03:50:11;10.80;90.50
35381;DHT22;21486;51.916;8.378;2022-11-15T03:52:39;10.80;90.60
35381;DHT22;21486;51.916;8.378;2022-11-15T03:55:08;10.80;90.60
35381;DHT22;21486;51.916;8.378;2022-11-15T03:57:34;10.80;90.60
35381;DHT22;21486;51.916;8.378;2022-11-15T03:59:59;10.80;90.60
35381;DHT22;21486;51.916;8.378;2022-11-15T04:02:25;10.70;90.60
35381;DHT22;21486;51.916;8.378;2022-11-15T04:04:50;10.80;90.70
35381;DHT22;21486;51.916;8.378;2022-11-15T04:07:16;10.70;90.70
35381;DHT22;21486;51.916;8.378;2022-11-15T04:09:41;10.80;90.70
35381;DHT22;21486;51.916;8.378;2022-11-15T04:12:28;10.70;90.80
35381;DHT22;21486;51.916;8.378;2022-11-15T04:14:59;10.80;90.80
35381;DHT22;21486;51.916;8.378;2022-11-15T04:17:47;10.80;90.70
35381;DHT22;21486;51.916;8.378;2022-11-15T04:20:22;10.80;90.80
35381;DHT22;21486;51.916;8.378;2022-11-15T04:23:11;10.80;90.80
35381;DHT22;21486;51.916;8.378;2022-11-15T04:25:57;10.80;90.80
35381;DHT22;21486;51.916;8.378;2022-11-15T04:28:23;10.80;90.80
35381;DHT22;21486;51.916;8.378;2022-11-15T04:30:49;10.80;90.70
35381;DHT22;21486;51.916;8.378;2022-11-15T04:33:15;10.80;90.80
35381;DHT22;21486;51.916;8.378;2022-11-15T04:35:42;10.80;90.80
35381;DHT22;21486;51.916;8.378;2022-11-15T04:38:09;10.70;90.80
35381;DHT22;21486;51.916;8.378;2022-11-15T04:40:36;10.70;90.90
35381;DHT22;21486;51.916;8.378;2022-11-15T04:43:02;10.80;90.90
35381;DHT22;21486;51.916;8.378;2022-11-15T04:45:28;10.70;90.80
35381;DHT22;21486;51.916;8.378;2022-11-15T04:47:54;10.80;90.80
35381;DHT22;21486;51.916;8.378;2022-11-15T04:50:19;10.80;90.80
35381;DHT22;21486;51.916;8.378;2022-11-15T04:52:51;10.80;90.80
35381;DHT22;21486;51.916;8.378;2022-11-15T04:55:17;10.80;90.70
35381;DHT22;21486;51.916;8.378;2022-11-15T04:57:43;10.80;90.70
35381;DHT22;21486;51.916;8.378;2022-11-15T05:00:11;10.80;90.80
35381;DHT22;21486;51.916;8.378;2022-11-15T05:02:38;10.80;90.80
35381;DHT22;21486;51.916;8.378;2022-11-15T05:05:23;10.70;90.80
35381;DHT22;21486;51.916;8.378;2022-11-15T05:07:49;10.80;90.80
35381;DHT22;21486;51.916;8.378;2022-11-15T05:10:15;10.80;90.80
35381;DHT22;21486;51.916;8.378;2022-11-15T05:12:40;10.70;90.80
35381;DHT22;21486;51.916;8.378;2022-11-15T05:15:06;10.70;90.90
35381;DHT22;21486;51.916;8.378;2022-11-15T05:17:32;10.70;90.90
35381;DHT22;21486;51.916;8.378;2022-11-15T05:19:57;10.80;91.00
35381;DHT22;21486;51.916;8.378;2022-11-15T05:22:23;10.80;90.90
35381;DHT22;21486;51.916;8.378;2022-11-15T05:24:48;10.80;90.90
35381;DHT22;21486;51.916;8.378;2022-11-15T05:27:14;10.80;90.90
35381;DHT22;21486;51.916;8.378;2022-11-15T05:29:40;10.80;90.90
35381;DHT22;21486;51.916;8.378;2022-11-15T05:32:06;10.80;90.80
35381;DHT22;21486;51.916;8.378;2022-11-15T05:34:33;10.80;90.80
35381;DHT22;21486;51.916;8.378;2022-11-15T05:36:59;10.80;90.80
35381;DHT22;21486;51.916;8.378;2022-11-15T05:39:25;10.90;90.80
35381;DHT22;21486;51.916;8.378;2022-11-15T05:41:58;10.90;90.70
35381;DHT22;21486;51.916;8.378;2022-11-15T05:44:25;10.90;90.70
35381;DHT22;21486;51.916;8.378;2022-11-15T05:46:52;10.90;90.60
35381;DHT22;21486;51.916;8.378;2022-11-15T05:49:21;10.90;90.60
35381;DHT22;21486;51.916;8.378;2022-11-15T05:51:48;10.90;90.60
35381;DHT22;21486;51.916;8.378;2022-11-15T05:54:15;10.90;90.40
35381;DHT22;21486;51.916;8.378;2022-11-15T05:56:41;11.00;90.30
35381;DHT22;21486;51.916;8.378;2022-11-15T05:59:08;11.00;90.20
35381;DHT22;21486;51.916;8.378;2022-11-15T06:01:34;11.00;90.30
35381;DHT22;21486;51.916;8.378;2022-11-15T06:04:00;11.00;90.30
35381;DHT22;21486;51.916;8.378;2022-11-15T06:06:27;10.90;90.50
35381;DHT22;21486;51.916;8.378;2022-11-15T06:08:53;11.00;90.30
35381;DHT22;21486;51.916;8.378;2022-11-15T06:11:19;10.90;90.30
35381;DHT22;21486;51.916;8.378;2022-11-15T06:13:44;11.00;90.30
35381;DHT22;21486;51.916;8.378;2022-11-15T06:16:10;10.90;90.30
35381;DHT22;21486;51.916;8.378;2022-11-15T06:18:36;11.00;90.30
35381;DHT22;21486;51.916;8.378;2022-11-15T06:21:02;11.00;90.30
35381;DHT22;21486;51.916;8.378;2022-11-15T06:23:28;11.00;90.30
35381;DHT22;21486;51.916;8.378;2022-11-15T06:25:57;11.00;90.30
35381;DHT22;21486;51.916;8.378;2022-11-15T06:28:23;11.10;90.20
35381;DHT22;21486;51.916;8.378;2022-11-15T06:30:49;11.10;90.10
35381;DHT22;21486;51.916;8.378;2022-11-15T06:33:14;11.10;90.40
35381;DHT22;21486;51.916;8.378;2022-11-15T06:35:40;11.10;90.20
35381;DHT22;21486;51.916;8.378;2022-11-15T06:38:08;11.20;90.10
35381;DHT22;21486;51.916;8.378;2022-11-15T06:40:35;11.20;90.00
35381;DHT22;21486;51.916;8.378;2022-11-15T06:43:01;11.30;89.90
35381;DHT22;21486;51.916;8.378;2022-11-15T06:45:27;11.30;89.80
35381;DHT22;21486;51.916;8.378;2022-11-15T06:47:52;11.30;89.80
35381;DHT22;21486;51.916;8.378;2022-11-15T06:50:18;11.30;89.80
35381;DHT22;21486;51.916;8.378;2022-11-15T06:52:44;11.30;89.70
35381;DHT22;21486;51.916;8.378;2022-11-15T06:55:10;11.40;89.60
35381;DHT22;21486;51.916;8.378;2022-11-15T06:57:36;11.40;89.40
35381;DHT22;21486;51.916;8.378;2022-11-15T07:00:04;11.40;89.90
35381;DHT22;21486;51.916;8.378;2022-11-15T07:02:30;11.50;89.20
35381;DHT22;21486;51.916;8.378;2022-11-15T07:04:56;11.50;89.10
35381;DHT22;21486;51.916;8.378;2022-11-15T07:07:21;11.50;89.10
35381;DHT22;21486;51.916;8.378;2022-11-15T07:09:47;11.60;89.00
35381;DHT22;21486;51.916;8.378;2022-11-15T07:12:13;11.50;88.80
35381;DHT22;21486;51.916;8.378;2022-11-15T07:14:39;11.60;88.90
35381;DHT22;21486;51.916;8.378;2022-11-15T07:17:04;11.60;89.00
35381;DHT22;21486;51.916;8.378;2022-11-15T07:19:30;11.50;88.90
35381;DHT22;21486;51.916;8.378;2022-11-15T07:21:56;11.60;89.00
35381;DHT22;21486;51.916;8.378;2022-11-15T07:24:22;11.60;89.00
35381;DHT22;21486;51.916;8.378;2022-11-15T07:26:47;11.60;88.60
35381;DHT22;21486;51.916;8.378;2022-11-15T07:29:13;11.70;88.40
35381;DHT22;21486;51.916;8.378;2022-11-15T07:31:38;11.80;88.20
35381;DHT22;21486;51.916;8.378;2022-11-15T07:34:04;11.80;88.10
35381;DHT22;21486;51.916;8.378;2022-11-15T07:36:30;11.90;88.10
35381;DHT22;21486;51.916;8.378;2022-11-15T07:38:55;11.80;87.80
35381;DHT22;21486;51.916;8.378;2022-11-15T07:41:21;11.90;87.80
35381;DHT22;21486;51.916;8.378;2022-11-15T07:43:47;12.00;87.60
35381;DHT22;21486;51.916;8.378;2022-11-15T07:46:12;12.00;87.50
35381;DHT22;21486;51.916;8.378;2022-11-15T07:48:38;12.10;87.50
35381;DHT22;21486;51.916;8.378;2022-11-15T07:51:06;12.10;87.40
35381;DHT22;21486;51.916;8.378;2022-11-15T07:53:32;12.10;87.20
35381;DHT22;21486;51.916;8.378;2022-11-15T07:55:57;12.10;87.00
35381;DHT22;21486;51.916;8.378;2022-11-15T07:58:23;12.20;87.10
35381;DHT22;21486;51.916;8.378;2022-11-15T08:00:48;12.30;87.10
35381;DHT22;21486;51.916;8.378;2022-11-15T08:03:15;12.20;87.00
35381;DHT22;21486;51.916;8.378;2022-11-15T08:05:42;12.40;87.00
35381;DHT22;21486;51.916;8.378;2022-11-15T08:08:10;12.40;86.50
35381;DHT22;21486;51.916;8.378;2022-11-15T08:10:36;12.60;86.10
35381;DHT22;21486;51.916;8.378;2022-11-15T08:13:06;12.70;85.30
35381;DHT22;21486;51.916;8.378;2022-11-15T08:15:33;12.90;84.70
35381;DHT22;21486;51.916;8.378;2022-11-15T08:18:03;13.00;84.30
35381;DHT22;21486;51.916;8.378;2022-11-15T08:20:30;13.10;83.30
35381;DHT22;21486;51.916;8.378;2022-11-15T08:23:00;13.10;83.00
35381;DHT22;21486;51.916;8.378;2022-11-15T08:25:27;13.00;83.20
35381;DHT22;21486;51.916;8.378;2022-11-15T08:27:54;13.00;83.40
35381;DHT22;21486;51.916;8.378;2022-11-15T08:30:20;13.00;83.30
35381;DHT22;21486;51.916;8.378;2022-11-15T08:32:46;13.10;83.40
35381;DHT22;21486;51.916;8.378;2022-11-15T08:35:11;13.30;83.10
35381;DHT22;21486;51.916;8.378;2022-11-15T08:37:37;13.30;82.00
35381;DHT22;21486;51.916;8.378;2022-11-15T08:40:04;13.40;81.90
35381;DHT22;21486;51.916;8.378;2022-11-15T08:42:30;13.60;80.70
35381;DHT22;21486;51.916;8.378;2022-11-15T08:44:55;13.90;79.40
35381;DHT22;21486;51.916;8.378;2022-11-15T08:47:21;14.10;78.10
35381;DHT22;21486;51.916;8.378;2022-11-15T08:49:46;14.30;77.30
35381;DHT22;21486;51.916;8.378;2022-11-15T08:52:12;14.70;75.90
35381;DHT22;21486;51.916;8.378;2022-11-15T08:54:38;14.90;75.30
35381;DHT22;21486;51.916;8.378;2022-11-15T08:57:04;15.10;74.10
35381;DHT22;21486;51.916;8.378;2022-11-15T08:59:29;15.00;73.90
35381;DHT22;21486;51.916;8.378;2022-11-15T09:01:55;14.90;74.50
35381;DHT22;21486;51.916;8.378;2022-11-15T09:04:20;14.90;74.70
35381;DHT22;21486;51.916;8.378;2022-11-15T09:06:46;14.70;74.90
35381;DHT22;21486;51.916;8.378;2022-11-15T09:09:12;14.90;73.90
35381;DHT22;21486;51.916;8.378;2022-11-15T09:11:37;15.10;73.60
35381;DHT22;21486;51.916;8.378;2022-11-15T09:14:03;15.10;73.00
35381;DHT22;21486;51.916;8.378;2022-11-15T09:16:30;15.00;73.60
35381;DHT22;21486;51.916;8.378;2022-11-15T09:18:56;15.10;72.40
35381;DHT22;21486;51.916;8.378;2022-11-15T09:21:22;15.20;71.80
35381;DHT22;21486;51.916;8.378;2022-11-15T09:23:50;15.40;71.10
35381;DHT22;21486;51.916;8.378;2022-11-15T09:26:17;15.40;69.10
35381;DHT22;21486;51.916;8.378;2022-11-15T09:28:43;15.40;69.60
35381;DHT22;21486;51.916;8.378;2022-11-15T09:31:09;15.50;69.30
35381;DHT22;21486;51.916;8.378;2022-11-15T09:33:35;15.50;68.80
35381;DHT22;21486;51.916;8.378;2022-11-15T09:36:03;15.60;68.90
35381;DHT22;21486;51.916;8.378;2022-11-15T09:38:28;15.40;68.30
35381;DHT22;21486;51.916;8.378;2022-11-15T09:41:08;15.60;68.80
35381;DHT22;21486;51.916;8.378;2022-11-15T09:46:13;16.20;65.50
35381;DHT22;21486;51.916;8.378;2022-11-15T09:48:54;16.20;65.80
35381;DHT22;21486;51.916;8.378;2022-11-15T09:51:43;15.90;66.20
35381;DHT22;21486;51.916;8.378;2022-11-15T09:54:38;15.80;66.30
35381;DHT22;21486;51.916;8.378;2022-11-15T09:57:09;15.70;66.00
35381;DHT22;21486;51.916;8.378;2022-11-15T10:02:42;15.90;65.50
35381;DHT22;21486;51.916;8.378;2022-11-15T10:05:11;16.40;64.50
35381;DHT22;21486;51.916;8.378;2022-11-15T10:07:55;16.20;64.00
35381;DHT22;21486;51.916;8.378;2022-11-15T10:10:41;16.00;64.00
35381;DHT22;21486;51.916;8.378;2022-11-15T10:13:15;16.00;63.90
35381;DHT22;21486;51.916;8.378;2022-11-15T10:15:43;16.10;63.90
35381;DHT22;21486;51.916;8.378;2022-11-15T10:20:55;16.20;62.70
35381;DHT22;21486;51.916;8.378;2022-11-15T10:23:23;16.20;62.20
35381;DHT22;21486;51.916;8.378;2022-11-15T10:25:52;16.50;61.60
35381;DHT22;21486;51.916;8.378;2022-11-15T10:28:29;16.20;61.80
35381;DHT22;21486;51.916;8.378;2022-11-15T10:30:57;16.30;62.00
35381;DHT22;21486;51.916;8.378;2022-11-15T10:33:33;16.00;61.90
35381;DHT22;21486;51.916;8.378;2022-11-15T10:41:35;15.60;63.00
35381;DHT22;21486;51.916;8.378;2022-11-15T10:46:37;16.00;63.10
35381;DHT22;21486;51.916;8.378;2022-11-15T10:49:26;15.80;62.00
35381;DHT22;21486;51.916;8.378;2022-11-15T10:51:59;16.10;61.60
35381;DHT22;21486;51.916;8.378;2022-11-15T10:54:35;16.20;61.10
35381;DHT22;21486;51.916;8.378;2022-11-15T10:57:28;16.20;61.40
35381;DHT22;21486;51.916;8.378;2022-11-15T10:59:58;16.50;60.50
35381;DHT22;21486;51.916;8.378;2022-11-15T11:04:56;16.70;59.50
35381;DHT22;21486;51.916;8.378;2022-11-15T11:07:28;16.80;59.60
35381;DHT22;21486;51.916;8.378;2022-11-15T11:10:22;16.40;59.30
35381;DHT22;21486;51.916;8.378;2022-11-15T11:12:47;16.80;59.80
35381;DHT22;21486;51.916;8.378;2022-11-15T11:15:15;16.90;58.50
35381;DHT22;21486;51.916;8.378;2022-11-15T11:17:52;16.90;58.90
35381;DHT22;21486;51.916;8.378;2022-11-15T11:31:38;16.20;60.50
35381;DHT22;21486;51.916;8.378;2022-11-15T11:37:00;16.40;60.40
35381;DHT22;21486;51.916;8.378;2022-11-15T11:43:03;16.30;60.20
35381;DHT22;21486;51.916;8.378;2022-11-15T11:50:30;16.10;61.10
35381;DHT22;21486;51.916;8.378;2022-11-15T11:53:18;16.10;61.70
35381;DHT22;21486;51.916;8.378;2022-11-15T11:55:54;16.10;62.30
35381;DHT22;21486;51.916;8.378;2022-11-15T11:58:34;15.90;60.80
35381;DHT22;21486;51.916;8.378;2022-11-15T12:01:13;15.80;61.60
35381;DHT22;21486;51.916;8.378;2022-11-15T12:06:26;15.70;62.20
35381;DHT22;21486;51.916;8.378;2022-11-15T12:08:59;15.70;62.50
35381;DHT22;21486;51.916;8.378;2022-11-15T12:14:43;15.70;60.30
35381;DHT22;21486;51.916;8.378;2022-11-15T12:17:11;15.60;59.60
35381;DHT22;21486;51.916;8.378;2022-11-15T12:19:40;15.70;60.40
35381;DHT22;21486;51.916;8.378;2022-11-15T12:22:20;15.50;60.00
35381;DHT22;21486;51.916;8.378;2022-11-15T12:28:03;15.30;61.20
35381;DHT22;21486;51.916;8.378;2022-11-15T12:30:44;15.30;61.80
35381;DHT22;21486;51.916;8.378;2022-11-15T12:33:43;15.40;62.00
35381;DHT22;21486;51.916;8.378;2022-11-15T12:38:57;15.60;61.20
35381;DHT22;21486;51.916;8.378;2022-11-15T12:43:53;15.40;60.90
35381;DHT22;21486;51.916;8.378;2022-11-15T12:59:52;15.30;61.40
35381;DHT22;21486;51.916;8.378;2022-11-15T13:02:37;15.40;61.00
35381;DHT22;21486;51.916;8.378;2022-11-15T13:17:39;15.40;60.50
35381;DHT22;21486;51.916;8.378;2022-11-15T13:22:43;15.60;60.40
35381;DHT22;21486;51.916;8.378;2022-11-15T13:30:50;15.80;58.90
35381;DHT22;21486;51.916;8.378;2022-11-15T13:33:31;15.80;58.50
35381;DHT22;21486;51.916;8.378;2022-11-15T13:36:01;15.90;58.40
35381;DHT22;21486;51.916;8.378;2022-11-15T13:38:30;15.70;58.60
35381;DHT22;21486;51.916;8.378;2022-11-15T13:40:57;15.60;58.90
35381;DHT22;21486;51.916;8.378;2022-11-15T13:43:34;15.60;59.10
35381;DHT22;21486;51.916;8.378;2022-11-15T13:46:13;15.40;59.30
35381;DHT22;21486;51.916;8.378;2022-11-15T13:48:40;15.50;59.10
35381;DHT22;21486;51.916;8.378;2022-11-15T13:53:46;15.40;58.80
35381;DHT22;21486;51.916;8.378;2022-11-15T13:56:15;15.40;57.70
35381;DHT22;21486;51.916;8.378;2022-11-15T13:58:42;15.30;57.50
35381;DHT22;21486;51.916;8.378;2022-11-15T14:01:14;15.30;56.70
35381;DHT22;21486;51.916;8.378;2022-11-15T14:03:47;15.20;57.50
35381;DHT22;21486;51.916;8.378;2022-11-15T14:06:16;15.20;56.80
35381;DHT22;21486;51.916;8.378;2022-11-15T14:08:58;15.20;56.40
35381;DHT22;21486;51.916;8.378;2022-11-15T14:11:24;15.30;56.30
35381;DHT22;21486;51.916;8.378;2022-11-15T14:16:43;15.10;56.20
35381;DHT22;21486;51.916;8.378;2022-11-15T14:22:14;15.10;56.90
35381;DHT22;21486;51.916;8.378;2022-11-15T14:24:42;15.10;57.10
35381;DHT22;21486;51.916;8.378;2022-11-15T14:27:25;15.00;57.00
35381;DHT22;21486;51.916;8.378;2022-11-15T14:29:51;15.10;57.00
35381;DHT22;21486;51.916;8.378;2022-11-15T14:32:20;15.00;57.50
35381;DHT22;21486;51.916;8.378;2022-11-15T14:34:47;15.00;57.50
35381;DHT22;21486;51.916;8.378;2022-11-15T14:37:33;14.90;58.00
35381;DHT22;21486;51.916;8.378;2022-11-15T14:40:01;14.80;57.70
35381;DHT22;21486;51.916;8.378;2022-11-15T14:42:26;14.80;58.30
35381;DHT22;21486;51.916;8.378;2022-11-15T14:44:52;14.70;58.40
35381;DHT22;21486;51.916;8.378;2022-11-15T14:47:18;14.60;58.80
35381;DHT22;21486;51.916;8.378;2022-11-15T14:49:44;14.50;59.30
35381;DHT22;21486;51.916;8.378;2022-11-15T14:52:30;14.50;59.60
35381;DHT22;21486;51.916;8.378;2022-11-15T14:54:59;14.50;59.60
35381;DHT22;21486;51.916;8.378;2022-11-15T14:57:26;14.40;59.50
35381;DHT22;21486;51.916;8.378;2022-11-15T14:59:52;14.50;59.30
35381;DHT22;21486;51.916;8.378;2022-11-15T15:02:23;14.50;58.90
35381;DHT22;21486;51.916;8.378;2022-11-15T15:04:50;14.50;59.30
35381;DHT22;21486;51.916;8.378;2022-11-15T15:07:16;14.50;59.30
35381;DHT22;21486;51.916;8.378;2022-11-15T15:09:43;14.50;58.80
35381;DHT22;21486;51.916;8.378;2022-11-15T15:12:20;14.50;58.90
35381;DHT22;21486;51.916;8.378;2022-11-15T15:14:47;14.40;59.30
35381;DHT22;21486;51.916;8.378;2022-11-15T15:17:13;14.40;59.40
35381;DHT22;21486;51.916;8.378;2022-11-15T15:19:39;14.40;60.10
35381;DHT22;21486;51.916;8.378;2022-11-15T15:22:05;14.30;59.40
35381;DHT22;21486;51.916;8.378;2022-11-15T15:24:31;14.40;59.30
35381;DHT22;21486;51.916;8.378;2022-11-15T15:26:57;14.40;59.60
35381;DHT22;21486;51.916;8.378;2022-11-15T15:29:22;14.30;59.30
35381;DHT22;21486;51.916;8.378;2022-11-15T15:31:48;14.30;59.50
35381;DHT22;21486;51.916;8.378;2022-11-15T15:34:13;14.30;60.00
35381;DHT22;21486;51.916;8.378;2022-11-15T15:36:39;14.20;60.10
35381;DHT22;21486;51.916;8.378;2022-11-15T15:39:07;14.10;60.40
35381;DHT22;21486;51.916;8.378;2022-11-15T15:41:33;14.00;60.70
35381;DHT22;21486;51.916;8.378;2022-11-15T15:43:59;14.00;61.40
35381;DHT22;21486;51.916;8.378;2022-11-15T15:46:24;13.90;62.00
35381;DHT22;21486;51.916;8.378;2022-11-15T15:48:50;13.90;63.40
35381;DHT22;21486;51.916;8.378;2022-11-15T15:51:16;13.80;64.50
35381;DHT22;21486;51.916;8.378;2022-11-15T15:53:41;13.70;65.50
35381;DHT22;21486;51.916;8.378;2022-11-15T15:56:08;13.80;66.30
35381;DHT22;21486;51.916;8.378;2022-11-15T15:58:34;13.70;66.60
35381;DHT22;21486;51.916;8.378;2022-11-15T16:01:00;13.70;67.10
35381;DHT22;21486;51.916;8.378;2022-11-15T16:03:25;13.60;68.00
35381;DHT22;21486;51.916;8.378;2022-11-15T16:05:53;13.60;68.20
35381;DHT22;21486;51.916;8.378;2022-11-15T16:08:20;13.60;68.70
35381;DHT22;21486;51.916;8.378;2022-11-15T16:10:46;13.60;69.10
35381;DHT22;21486;51.916;8.378;2022-11-15T16:13:11;13.50;69.40
35381;DHT22;21486;51.916;8.378;2022-11-15T16:15:37;13.40;69.80
35381;DHT22;21486;51.916;8.378;2022-11-15T16:18:04;13.40;70.20
35381;DHT22;21486;51.916;8.378;2022-11-15T16:20:33;13.30;70.40
35381;DHT22;21486;51.916;8.378;2022-11-15T16:23:00;13.30;70.70
35381;DHT22;21486;51.916;8.378;2022-11-15T16:25:26;13.30;70.90
35381;DHT22;21486;51.916;8.378;2022-11-15T16:27:52;13.20;71.10
35381;DHT22;21486;51.916;8.378;2022-11-15T16:30:20;13.20;71.50
35381;DHT22;21486;51.916;8.378;2022-11-15T16:32:46;13.10;71.60
35381;DHT22;21486;51.916;8.378;2022-11-15T16:35:13;13.10;72.00
35381;DHT22;21486;51.916;8.378;2022-11-15T16:37:39;13.10;72.40
35381;DHT22;21486;51.916;8.378;2022-11-15T16:40:23;13.10;72.50
35381;DHT22;21486;51.916;8.378;2022-11-15T16:42:49;13.10;72.90
35381;DHT22;21486;51.916;8.378;2022-11-15T16:45:15;13.10;73.00
35381;DHT22;21486;51.916;8.378;2022-11-15T16:47:41;13.00;73.20
35381;DHT22;21486;51.916;8.378;2022-11-15T16:50:23;12.90;73.70
35381;DHT22;21486;51.916;8.378;2022-11-15T16:52:55;13.00;74.10
35381;DHT22;21486;51.916;8.378;2022-11-15T16:55:22;13.00;74.20
35381;DHT22;21486;51.916;8.378;2022-11-15T16:57:48;12.90;74.40
35381;DHT22;21486;51.916;8.378;2022-11-15T17:00:16;12.90;74.80
35381;DHT22;21486;51.916;8.378;2022-11-15T17:02:43;12.80;75.10
35381;DHT22;21486;51.916;8.378;2022-11-15T17:05:08;12.90;75.40
35381;DHT22;21486;51.916;8.378;2022-11-15T17:07:34;12.90;75.20
35381;DHT22;21486;51.916;8.378;2022-11-15T17:10:00;12.90;75.20
35381;DHT22;21486;51.916;8.378;2022-11-15T17:12:25;13.00;75.20
35381;DHT22;21486;51.916;8.378;2022-11-15T17:14:51;13.00;75.30
35381;DHT22;21486;51.916;8.378;2022-11-15T17:17:16;13.00;75.20
35381;DHT22;21486;51.916;8.378;2022-11-15T17:19:42;13.00;75.40
35381;DHT22;21486;51.916;8.378;2022-11-15T17:22:08;13.00;75.50
35381;DHT22;21486;51.916;8.378;2022-11-15T17:24:33;13.10;75.40
35381;DHT22;21486;51.916;8.378;2022-11-15T17:26:59;13.10;75.40
35381;DHT22;21486;51.916;8.378;2022-11-15T17:29:24;13.10;75.60
35381;DHT22;21486;51.916;8.378;2022-11-15T17:31:50;13.10;75.50
35381;DHT22;21486;51.916;8.378;2022-11-15T17:34:15;13.20;75.70
35381;DHT22;21486;51.916;8.378;2022-11-15T17:36:41;13.10;75.80
35381;DHT22;21486;51.916;8.378;2022-11-15T17:39:06;13.10;76.00
35381;DHT22;21486;51.916;8.378;2022-11-15T17:41:32;13.10;76.10
35381;DHT22;21486;51.916;8.378;2022-11-15T17:43:59;13.20;76.20
35381;DHT22;21486;51.916;8.378;2022-11-15T17:46:27;13.20;76.20
35381;DHT22;21486;51.916;8.378;2022-11-15T17:48:54;13.30;76.20
35381;DHT22;21486;51.916;8.378;2022-11-15T17:51:20;13.30;76.20
35381;DHT22;21486;51.916;8.378;2022-11-15T17:53:48;13.30;76.20
35381;DHT22;21486;51.916;8.378;2022-11-15T17:56:17;13.40;76.20